sensor_id;sensor_type;location;lat;lon;timestamp;P1;durP1;ratioP1;P2;durP2;ratioP2
71639;SDS011;60912;48.968;10.124;2023-02-15T00:01:28;22.83;;;11.88;;
71639;SDS011;60912;48.968;10.124;2023-02-15T00:03:54;25.60;;;13.07;;
71639;SDS011;60912;48.968;10.124;2023-02-15T00:06:19;25.67;;;14.00;;
71639;SDS011;60912;48.968;10.124;2023-02-15T00:08:44;23.60;;;12.63;;
71639;SDS011;60912;48.968;10.124;2023-02-15T00:11:11;28.53;;;12.73;;
71639;SDS011;60912;48.968;10.124;2023-02-15T00:13:38;22.40;;;11.73;;
71639;SDS011;60912;48.968;10.124;2023-02-15T00:16:06;24.23;;;13.27;;
71639;SDS011;60912;48.968;10.124;2023-02-15T00:18:33;26.50;;;13.10;;
71639;SDS011;60912;48.968;10.124;2023-02-15T00:21:02;27.38;;;14.00;;
71639;SDS011;60912;48.968;10.124;2023-02-15T00:23:29;30.27;;;15.57;;
71639;SDS011;60912;48.968;10.124;2023-02-15T00:28:30;21.53;;;11.57;;
71639;SDS011;60912;48.968;10.124;2023-02-15T00:31:01;24.73;;;11.95;;
71639;SDS011;60912;48.968;10.124;2023-02-15T00:33:37;25.02;;;12.70;;
71639;SDS011;60912;48.968;10.124;2023-02-15T00:36:04;29.70;;;14.38;;
71639;SDS011;60912;48.968;10.124;2023-02-15T00:38:31;23.77;;;12.40;;
71639;SDS011;60912;48.968;10.124;2023-02-15T00:40:57;28.65;;;14.15;;
71639;SDS011;60912;48.968;10.124;2023-02-15T00:43:23;27.60;;;13.98;;
71639;SDS011;60912;48.968;10.124;2023-02-15T00:45:49;25.80;;;13.52;;
71639;SDS011;60912;48.968;10.124;2023-02-15T00:48:15;24.90;;;12.67;;
71639;SDS011;60912;48.968;10.124;2023-02-15T00:50:40;23.93;;;12.37;;
71639;SDS011;60912;48.968;10.124;2023-02-15T00:53:06;38.13;;;13.20;;
71639;SDS011;60912;48.968;10.124;2023-02-15T00:55:31;24.15;;;12.95;;
71639;SDS011;60912;48.968;10.124;2023-02-15T00:57:56;26.37;;;12.87;;
71639;SDS011;60912;48.968;10.124;2023-02-15T01:00:22;26.83;;;12.50;;
71639;SDS011;60912;48.968;10.124;2023-02-15T01:02:47;24.33;;;12.67;;
71639;SDS011;60912;48.968;10.124;2023-02-15T01:05:12;21.23;;;11.47;;
71639;SDS011;60912;48.968;10.124;2023-02-15T01:07:38;25.70;;;11.90;;
71639;SDS011;60912;48.968;10.124;2023-02-15T01:10:04;24.58;;;12.48;;
71639;SDS011;60912;48.968;10.124;2023-02-15T01:12:31;22.27;;;11.87;;
71639;SDS011;60912;48.968;10.124;2023-02-15T01:14:57;23.58;;;12.95;;
71639;SDS011;60912;48.968;10.124;2023-02-15T01:17:22;24.97;;;12.67;;
71639;SDS011;60912;48.968;10.124;2023-02-15T01:19:47;29.67;;;14.07;;
71639;SDS011;60912;48.968;10.124;2023-02-15T01:22:13;25.17;;;12.40;;
71639;SDS011;60912;48.968;10.124;2023-02-15T01:24:38;37.80;;;12.10;;
71639;SDS011;60912;48.968;10.124;2023-02-15T01:27:04;25.93;;;13.47;;
71639;SDS011;60912;48.968;10.124;2023-02-15T01:29:29;23.70;;;12.40;;
71639;SDS011;60912;48.968;10.124;2023-02-15T01:31:54;24.87;;;12.73;;
71639;SDS011;60912;48.968;10.124;2023-02-15T01:34:21;28.63;;;12.13;;
71639;SDS011;60912;48.968;10.124;2023-02-15T01:36:46;23.70;;;11.53;;
71639;SDS011;60912;48.968;10.124;2023-02-15T01:39:12;23.87;;;11.43;;
71639;SDS011;60912;48.968;10.124;2023-02-15T01:41:37;30.07;;;10.93;;
71639;SDS011;60912;48.968;10.124;2023-02-15T01:44:03;23.02;;;11.70;;
71639;SDS011;60912;48.968;10.124;2023-02-15T01:46:36;20.20;;;11.03;;
71639;SDS011;60912;48.968;10.124;2023-02-15T01:49:12;21.55;;;11.15;;
71639;SDS011;60912;48.968;10.124;2023-02-15T01:51:40;23.92;;;12.60;;
71639;SDS011;60912;48.968;10.124;2023-02-15T01:54:15;39.50;;;11.55;;
71639;SDS011;60912;48.968;10.124;2023-02-15T01:56:46;25.33;;;12.00;;
71639;SDS011;60912;48.968;10.124;2023-02-15T01:59:13;23.70;;;12.47;;
71639;SDS011;60912;48.968;10.124;2023-02-15T02:01:42;41.25;;;15.07;;
71639;SDS011;60912;48.968;10.124;2023-02-15T02:04:10;31.65;;;13.48;;
71639;SDS011;60912;48.968;10.124;2023-02-15T02:06:37;27.13;;;13.03;;
71639;SDS011;60912;48.968;10.124;2023-02-15T02:09:04;26.83;;;11.63;;
71639;SDS011;60912;48.968;10.124;2023-02-15T02:11:30;23.20;;;12.80;;
71639;SDS011;60912;48.968;10.124;2023-02-15T02:13:56;24.58;;;12.70;;
71639;SDS011;60912;48.968;10.124;2023-02-15T02:16:25;28.40;;;11.60;;
71639;SDS011;60912;48.968;10.124;2023-02-15T02:18:59;27.30;;;12.25;;
71639;SDS011;60912;48.968;10.124;2023-02-15T02:24:30;26.85;;;11.85;;
71639;SDS011;60912;48.968;10.124;2023-02-15T02:35:30;44.73;;;12.73;;
71639;SDS011;60912;48.968;10.124;2023-02-15T02:38:08;28.83;;;12.38;;
71639;SDS011;60912;48.968;10.124;2023-02-15T02:46:00;58.67;;;13.70;;
71639;SDS011;60912;48.968;10.124;2023-02-15T02:48:32;80.07;;;17.80;;
71639;SDS011;60912;48.968;10.124;2023-02-15T02:50:58;70.80;;;15.70;;
71639;SDS011;60912;48.968;10.124;2023-02-15T02:53:24;52.63;;;13.98;;
71639;SDS011;60912;48.968;10.124;2023-02-15T02:55:54;73.53;;;13.23;;
71639;SDS011;60912;48.968;10.124;2023-02-15T02:58:37;51.55;;;13.23;;
71639;SDS011;60912;48.968;10.124;2023-02-15T03:01:06;52.65;;;11.95;;
71639;SDS011;60912;48.968;10.124;2023-02-15T03:03:39;22.98;;;11.40;;
71639;SDS011;60912;48.968;10.124;2023-02-15T03:06:32;78.47;;;13.15;;
71639;SDS011;60912;48.968;10.124;2023-02-15T03:12:22;29.48;;;12.10;;
71639;SDS011;60912;48.968;10.124;2023-02-15T03:14:51;30.83;;;11.77;;
71639;SDS011;60912;48.968;10.124;2023-02-15T03:17:19;27.95;;;11.15;;
71639;SDS011;60912;48.968;10.124;2023-02-15T03:19:47;32.78;;;11.85;;
71639;SDS011;60912;48.968;10.124;2023-02-15T03:22:18;81.97;;;13.83;;
71639;SDS011;60912;48.968;10.124;2023-02-15T03:24:51;59.92;;;13.85;;
71639;SDS011;60912;48.968;10.124;2023-02-15T03:27:22;51.90;;;12.93;;
71639;SDS011;60912;48.968;10.124;2023-02-15T03:29:54;20.83;;;11.40;;
71639;SDS011;60912;48.968;10.124;2023-02-15T03:32:21;28.98;;;11.18;;
71639;SDS011;60912;48.968;10.124;2023-02-15T03:34:49;29.07;;;11.37;;
71639;SDS011;60912;48.968;10.124;2023-02-15T03:37:17;33.83;;;11.43;;
71639;SDS011;60912;48.968;10.124;2023-02-15T03:39:52;20.83;;;11.25;;
71639;SDS011;60912;48.968;10.124;2023-02-15T03:42:42;19.30;;;10.83;;
71639;SDS011;60912;48.968;10.124;2023-02-15T03:45:11;26.98;;;11.10;;
71639;SDS011;60912;48.968;10.124;2023-02-15T03:47:44;28.02;;;10.98;;
71639;SDS011;60912;48.968;10.124;2023-02-15T03:50:17;29.08;;;10.85;;
71639;SDS011;60912;48.968;10.124;2023-02-15T03:53:05;58.25;;;13.80;;
71639;SDS011;60912;48.968;10.124;2023-02-15T03:55:33;25.93;;;11.53;;
71639;SDS011;60912;48.968;10.124;2023-02-15T03:57:59;26.90;;;11.43;;
71639;SDS011;60912;48.968;10.124;2023-02-15T04:00:45;38.78;;;12.32;;
71639;SDS011;60912;48.968;10.124;2023-02-15T04:03:39;22.50;;;11.52;;
71639;SDS011;60912;48.968;10.124;2023-02-15T04:06:17;32.92;;;11.68;;
71639;SDS011;60912;48.968;10.124;2023-02-15T04:08:42;30.17;;;12.83;;
71639;SDS011;60912;48.968;10.124;2023-02-15T04:11:26;29.27;;;12.32;;
71639;SDS011;60912;48.968;10.124;2023-02-15T04:13:52;22.23;;;11.00;;
71639;SDS011;60912;48.968;10.124;2023-02-15T04:16:22;22.35;;;10.43;;
71639;SDS011;60912;48.968;10.124;2023-02-15T04:18:48;31.33;;;11.23;;
71639;SDS011;60912;48.968;10.124;2023-02-15T04:21:32;26.48;;;12.35;;
71639;SDS011;60912;48.968;10.124;2023-02-15T04:24:16;29.33;;;10.85;;
71639;SDS011;60912;48.968;10.124;2023-02-15T04:27:00;24.80;;;12.20;;
71639;SDS011;60912;48.968;10.124;2023-02-15T04:29:27;25.45;;;13.40;;
71639;SDS011;60912;48.968;10.124;2023-02-15T04:31:54;20.90;;;10.73;;
71639;SDS011;60912;48.968;10.124;2023-02-15T04:34:21;21.48;;;11.60;;
71639;SDS011;60912;48.968;10.124;2023-02-15T04:36:47;19.88;;;11.68;;
71639;SDS011;60912;48.968;10.124;2023-02-15T04:39:13;19.30;;;11.30;;
71639;SDS011;60912;48.968;10.124;2023-02-15T04:41:39;21.13;;;10.57;;
71639;SDS011;60912;48.968;10.124;2023-02-15T04:44:04;18.60;;;10.70;;
71639;SDS011;60912;48.968;10.124;2023-02-15T04:46:30;17.30;;;9.43;;
71639;SDS011;60912;48.968;10.124;2023-02-15T04:48:56;17.90;;;10.25;;
71639;SDS011;60912;48.968;10.124;2023-02-15T04:51:21;19.00;;;11.52;;
71639;SDS011;60912;48.968;10.124;2023-02-15T04:53:47;16.77;;;8.90;;
71639;SDS011;60912;48.968;10.124;2023-02-15T04:56:12;18.23;;;10.13;;
71639;SDS011;60912;48.968;10.124;2023-02-15T04:58:38;18.53;;;10.13;;
71639;SDS011;60912;48.968;10.124;2023-02-15T05:01:06;24.43;;;11.70;;
71639;SDS011;60912;48.968;10.124;2023-02-15T05:03:32;21.98;;;11.52;;
71639;SDS011;60912;48.968;10.124;2023-02-15T05:05:57;21.17;;;11.47;;
71639;SDS011;60912;48.968;10.124;2023-02-15T05:08:23;22.47;;;10.87;;
71639;SDS011;60912;48.968;10.124;2023-02-15T05:10:48;27.27;;;13.18;;
71639;SDS011;60912;48.968;10.124;2023-02-15T05:13:14;20.90;;;10.30;;
71639;SDS011;60912;48.968;10.124;2023-02-15T05:15:39;19.80;;;11.30;;
71639;SDS011;60912;48.968;10.124;2023-02-15T05:18:05;17.42;;;9.80;;
71639;SDS011;60912;48.968;10.124;2023-02-15T05:20:32;19.00;;;10.75;;
71639;SDS011;60912;48.968;10.124;2023-02-15T05:22:58;18.83;;;9.83;;
71639;SDS011;60912;48.968;10.124;2023-02-15T05:25:23;20.27;;;11.13;;
71639;SDS011;60912;48.968;10.124;2023-02-15T05:28:08;19.80;;;10.35;;
71639;SDS011;60912;48.968;10.124;2023-02-15T05:30:47;17.23;;;9.83;;
71639;SDS011;60912;48.968;10.124;2023-02-15T05:33:12;18.77;;;10.85;;
71639;SDS011;60912;48.968;10.124;2023-02-15T05:35:37;18.77;;;10.13;;
71639;SDS011;60912;48.968;10.124;2023-02-15T05:38:03;16.80;;;9.25;;
71639;SDS011;60912;48.968;10.124;2023-02-15T05:40:28;16.00;;;8.93;;
71639;SDS011;60912;48.968;10.124;2023-02-15T05:42:54;18.60;;;10.70;;
71639;SDS011;60912;48.968;10.124;2023-02-15T05:45:20;17.60;;;9.75;;
71639;SDS011;60912;48.968;10.124;2023-02-15T05:47:45;19.37;;;10.57;;
71639;SDS011;60912;48.968;10.124;2023-02-15T05:50:11;17.13;;;10.53;;
71639;SDS011;60912;48.968;10.124;2023-02-15T05:52:36;17.88;;;9.75;;
71639;SDS011;60912;48.968;10.124;2023-02-15T05:55:02;18.97;;;10.60;;
71639;SDS011;60912;48.968;10.124;2023-02-15T05:57:29;16.60;;;9.20;;
71639;SDS011;60912;48.968;10.124;2023-02-15T05:59:54;18.80;;;10.63;;
71639;SDS011;60912;48.968;10.124;2023-02-15T06:02:20;18.77;;;10.27;;
71639;SDS011;60912;48.968;10.124;2023-02-15T06:04:45;21.47;;;11.70;;
71639;SDS011;60912;48.968;10.124;2023-02-15T06:07:11;20.50;;;10.50;;
71639;SDS011;60912;48.968;10.124;2023-02-15T06:09:39;22.33;;;12.27;;
71639;SDS011;60912;48.968;10.124;2023-02-15T06:12:05;20.07;;;10.47;;
71639;SDS011;60912;48.968;10.124;2023-02-15T06:14:30;20.20;;;11.10;;
71639;SDS011;60912;48.968;10.124;2023-02-15T06:16:56;21.77;;;10.80;;
71639;SDS011;60912;48.968;10.124;2023-02-15T06:19:21;20.73;;;11.38;;
71639;SDS011;60912;48.968;10.124;2023-02-15T06:21:47;23.70;;;10.37;;
71639;SDS011;60912;48.968;10.124;2023-02-15T06:24:13;20.50;;;11.27;;
71639;SDS011;60912;48.968;10.124;2023-02-15T06:26:39;17.17;;;9.83;;
71639;SDS011;60912;48.968;10.124;2023-02-15T06:29:04;21.30;;;10.82;;
71639;SDS011;60912;48.968;10.124;2023-02-15T06:31:29;19.73;;;10.07;;
71639;SDS011;60912;48.968;10.124;2023-02-15T06:33:55;19.57;;;10.20;;
71639;SDS011;60912;48.968;10.124;2023-02-15T06:36:29;18.75;;;10.45;;
71639;SDS011;60912;48.968;10.124;2023-02-15T06:38:55;18.75;;;9.90;;
71639;SDS011;60912;48.968;10.124;2023-02-15T06:41:21;18.67;;;10.33;;
71639;SDS011;60912;48.968;10.124;2023-02-15T06:43:46;16.20;;;9.50;;
71639;SDS011;60912;48.968;10.124;2023-02-15T06:46:12;18.40;;;9.70;;
71639;SDS011;60912;48.968;10.124;2023-02-15T06:48:37;15.70;;;9.40;;
71639;SDS011;60912;48.968;10.124;2023-02-15T06:51:03;20.57;;;11.63;;
71639;SDS011;60912;48.968;10.124;2023-02-15T06:53:28;21.10;;;12.20;;
71639;SDS011;60912;48.968;10.124;2023-02-15T06:56:03;26.27;;;13.63;;
71639;SDS011;60912;48.968;10.124;2023-02-15T06:58:42;18.92;;;10.32;;
71639;SDS011;60912;48.968;10.124;2023-02-15T07:01:08;14.48;;;8.40;;
71639;SDS011;60912;48.968;10.124;2023-02-15T07:03:34;14.43;;;8.93;;
71639;SDS011;60912;48.968;10.124;2023-02-15T07:06:01;12.32;;;8.07;;
71639;SDS011;60912;48.968;10.124;2023-02-15T07:08:28;13.17;;;7.80;;
71639;SDS011;60912;48.968;10.124;2023-02-15T07:10:54;11.52;;;7.28;;
71639;SDS011;60912;48.968;10.124;2023-02-15T07:13:40;10.80;;;6.97;;
71639;SDS011;60912;48.968;10.124;2023-02-15T07:16:07;11.00;;;7.10;;
71639;SDS011;60912;48.968;10.124;2023-02-15T07:18:33;12.45;;;7.40;;
71639;SDS011;60912;48.968;10.124;2023-02-15T07:20:58;12.57;;;7.13;;
71639;SDS011;60912;48.968;10.124;2023-02-15T07:23:24;13.77;;;7.78;;
71639;SDS011;60912;48.968;10.124;2023-02-15T07:25:55;12.40;;;7.80;;
71639;SDS011;60912;48.968;10.124;2023-02-15T07:28:23;19.13;;;8.18;;
71639;SDS011;60912;48.968;10.124;2023-02-15T07:30:49;11.40;;;7.33;;
71639;SDS011;60912;48.968;10.124;2023-02-15T07:33:14;12.57;;;8.52;;
71639;SDS011;60912;48.968;10.124;2023-02-15T07:38:18;22.58;;;7.68;;
71639;SDS011;60912;48.968;10.124;2023-02-15T07:40:45;10.23;;;7.97;;
71639;SDS011;60912;48.968;10.124;2023-02-15T07:43:11;9.30;;;6.70;;
71639;SDS011;60912;48.968;10.124;2023-02-15T07:45:37;13.88;;;7.32;;
71639;SDS011;60912;48.968;10.124;2023-02-15T07:48:03;11.85;;;8.07;;
71639;SDS011;60912;48.968;10.124;2023-02-15T07:50:29;10.90;;;8.20;;
71639;SDS011;60912;48.968;10.124;2023-02-15T07:52:55;14.63;;;9.07;;
71639;SDS011;60912;48.968;10.124;2023-02-15T07:55:20;13.87;;;8.60;;
71639;SDS011;60912;48.968;10.124;2023-02-15T07:57:46;13.55;;;9.35;;
71639;SDS011;60912;48.968;10.124;2023-02-15T08:00:14;18.50;;;10.47;;
71639;SDS011;60912;48.968;10.124;2023-02-15T08:02:41;12.18;;;8.85;;
71639;SDS011;60912;48.968;10.124;2023-02-15T08:05:12;17.30;;;11.32;;
71639;SDS011;60912;48.968;10.124;2023-02-15T08:07:37;18.00;;;11.63;;
71639;SDS011;60912;48.968;10.124;2023-02-15T08:10:03;17.77;;;11.17;;
71639;SDS011;60912;48.968;10.124;2023-02-15T08:12:29;15.07;;;9.83;;
71639;SDS011;60912;48.968;10.124;2023-02-15T08:14:54;17.80;;;10.15;;
71639;SDS011;60912;48.968;10.124;2023-02-15T08:17:20;17.87;;;10.10;;
71639;SDS011;60912;48.968;10.124;2023-02-15T08:19:45;16.30;;;9.70;;
71639;SDS011;60912;48.968;10.124;2023-02-15T08:22:14;14.52;;;9.70;;
71639;SDS011;60912;48.968;10.124;2023-02-15T08:24:40;15.40;;;9.55;;
71639;SDS011;60912;48.968;10.124;2023-02-15T08:27:07;27.30;;;16.30;;
71639;SDS011;60912;48.968;10.124;2023-02-15T08:29:35;36.88;;;21.92;;
71639;SDS011;60912;48.968;10.124;2023-02-15T08:32:06;22.88;;;13.90;;
71639;SDS011;60912;48.968;10.124;2023-02-15T08:34:34;16.10;;;9.90;;
71639;SDS011;60912;48.968;10.124;2023-02-15T08:37:02;14.75;;;9.02;;
71639;SDS011;60912;48.968;10.124;2023-02-15T08:39:28;19.70;;;9.90;;
71639;SDS011;60912;48.968;10.124;2023-02-15T08:41:54;17.98;;;9.82;;
71639;SDS011;60912;48.968;10.124;2023-02-15T08:44:19;20.50;;;9.50;;
71639;SDS011;60912;48.968;10.124;2023-02-15T08:46:46;18.63;;;10.48;;
71639;SDS011;60912;48.968;10.124;2023-02-15T08:49:19;17.20;;;11.20;;
71639;SDS011;60912;48.968;10.124;2023-02-15T08:51:46;25.30;;;10.70;;
71639;SDS011;60912;48.968;10.124;2023-02-15T08:54:14;18.23;;;9.77;;
71639;SDS011;60912;48.968;10.124;2023-02-15T08:56:41;19.33;;;9.70;;
71639;SDS011;60912;48.968;10.124;2023-02-15T08:59:12;20.15;;;11.18;;
71639;SDS011;60912;48.968;10.124;2023-02-15T09:01:42;25.40;;;10.52;;
71639;SDS011;60912;48.968;10.124;2023-02-15T09:04:07;29.60;;;10.30;;
71639;SDS011;60912;48.968;10.124;2023-02-15T09:06:33;16.55;;;9.68;;
71639;SDS011;60912;48.968;10.124;2023-02-15T09:08:59;15.82;;;10.00;;
71639;SDS011;60912;48.968;10.124;2023-02-15T09:11:29;19.63;;;9.83;;
71639;SDS011;60912;48.968;10.124;2023-02-15T09:13:57;23.15;;;10.98;;
71639;SDS011;60912;48.968;10.124;2023-02-15T09:16:34;15.30;;;9.40;;
71639;SDS011;60912;48.968;10.124;2023-02-15T09:19:01;16.23;;;9.43;;
71639;SDS011;60912;48.968;10.124;2023-02-15T09:21:29;14.10;;;8.67;;
71639;SDS011;60912;48.968;10.124;2023-02-15T09:23:57;16.15;;;10.15;;
71639;SDS011;60912;48.968;10.124;2023-02-15T09:26:24;18.38;;;9.93;;
71639;SDS011;60912;48.968;10.124;2023-02-15T09:28:52;16.23;;;9.32;;
71639;SDS011;60912;48.968;10.124;2023-02-15T09:31:20;16.35;;;9.00;;
71639;SDS011;60912;48.968;10.124;2023-02-15T09:33:47;17.43;;;11.07;;
71639;SDS011;60912;48.968;10.124;2023-02-15T09:38:42;25.35;;;9.63;;
71639;SDS011;60912;48.968;10.124;2023-02-15T09:52:48;16.52;;;8.98;;
71639;SDS011;60912;48.968;10.124;2023-02-15T10:03:39;18.05;;;9.32;;
71639;SDS011;60912;48.968;10.124;2023-02-15T10:31:48;16.13;;;8.13;;
71639;SDS011;60912;48.968;10.124;2023-02-15T10:34:24;13.50;;;7.97;;
71639;SDS011;60912;48.968;10.124;2023-02-15T10:40:05;17.67;;;10.50;;
71639;SDS011;60912;48.968;10.124;2023-02-15T10:42:59;14.63;;;9.27;;
71639;SDS011;60912;48.968;10.124;2023-02-15T10:51:08;20.08;;;9.30;;
71639;SDS011;60912;48.968;10.124;2023-02-15T10:56:23;15.13;;;8.50;;
71639;SDS011;60912;48.968;10.124;2023-02-15T11:06:43;13.90;;;8.30;;
71639;SDS011;60912;48.968;10.124;2023-02-15T11:09:16;12.60;;;8.45;;
71639;SDS011;60912;48.968;10.124;2023-02-15T11:11:47;13.57;;;9.20;;
71639;SDS011;60912;48.968;10.124;2023-02-15T11:14:17;16.07;;;9.23;;
71639;SDS011;60912;48.968;10.124;2023-02-15T11:17:04;15.95;;;9.10;;
71639;SDS011;60912;48.968;10.124;2023-02-15T11:19:35;16.20;;;9.18;;
71639;SDS011;60912;48.968;10.124;2023-02-15T11:22:05;20.73;;;8.90;;
71639;SDS011;60912;48.968;10.124;2023-02-15T11:24:40;17.67;;;9.38;;
71639;SDS011;60912;48.968;10.124;2023-02-15T11:27:25;19.93;;;9.80;;
71639;SDS011;60912;48.968;10.124;2023-02-15T11:30:04;14.00;;;8.98;;
71639;SDS011;60912;48.968;10.124;2023-02-15T11:32:33;16.02;;;8.63;;
71639;SDS011;60912;48.968;10.124;2023-02-15T11:37:50;15.98;;;8.70;;
71639;SDS011;60912;48.968;10.124;2023-02-15T11:42:58;16.67;;;8.27;;
71639;SDS011;60912;48.968;10.124;2023-02-15T11:45:32;18.45;;;8.63;;
71639;SDS011;60912;48.968;10.124;2023-02-15T11:48:00;13.32;;;8.50;;
71639;SDS011;60912;48.968;10.124;2023-02-15T11:50:27;13.80;;;8.55;;
71639;SDS011;60912;48.968;10.124;2023-02-15T11:53:00;19.40;;;10.90;;
71639;SDS011;60912;48.968;10.124;2023-02-15T11:55:32;14.52;;;10.43;;
71639;SDS011;60912;48.968;10.124;2023-02-15T12:00:32;13.50;;;8.18;;
71639;SDS011;60912;48.968;10.124;2023-02-15T12:03:02;13.60;;;8.80;;
71639;SDS011;60912;48.968;10.124;2023-02-15T12:05:33;14.93;;;8.53;;
71639;SDS011;60912;48.968;10.124;2023-02-15T12:08:39;15.43;;;8.68;;
71639;SDS011;60912;48.968;10.124;2023-02-15T12:11:09;15.25;;;9.15;;
71639;SDS011;60912;48.968;10.124;2023-02-15T12:13:53;14.85;;;9.07;;
71639;SDS011;60912;48.968;10.124;2023-02-15T12:16:22;15.18;;;9.23;;
71639;SDS011;60912;48.968;10.124;2023-02-15T12:18:48;15.33;;;9.43;;
71639;SDS011;60912;48.968;10.124;2023-02-15T12:21:16;20.92;;;9.40;;
71639;SDS011;60912;48.968;10.124;2023-02-15T12:23:51;16.88;;;9.18;;
71639;SDS011;60912;48.968;10.124;2023-02-15T12:28:55;17.42;;;9.60;;
71639;SDS011;60912;48.968;10.124;2023-02-15T12:31:32;15.60;;;9.93;;
71639;SDS011;60912;48.968;10.124;2023-02-15T12:34:02;13.75;;;8.85;;
71639;SDS011;60912;48.968;10.124;2023-02-15T12:36:41;15.18;;;9.57;;
71639;SDS011;60912;48.968;10.124;2023-02-15T12:41:56;15.30;;;10.15;;
71639;SDS011;60912;48.968;10.124;2023-02-15T12:44:34;14.90;;;9.50;;
71639;SDS011;60912;48.968;10.124;2023-02-15T12:47:05;15.15;;;9.77;;
71639;SDS011;60912;48.968;10.124;2023-02-15T12:49:41;15.57;;;10.13;;
71639;SDS011;60912;48.968;10.124;2023-02-15T12:54:42;13.43;;;9.35;;
71639;SDS011;60912;48.968;10.124;2023-02-15T12:59:59;14.68;;;9.23;;
71639;SDS011;60912;48.968;10.124;2023-02-15T13:05:21;16.73;;;9.48;;
71639;SDS011;60912;48.968;10.124;2023-02-15T13:08:21;15.00;;;8.85;;
71639;SDS011;60912;48.968;10.124;2023-02-15T13:11:00;19.57;;;9.37;;
71639;SDS011;60912;48.968;10.124;2023-02-15T13:13:30;17.85;;;9.27;;
71639;SDS011;60912;48.968;10.124;2023-02-15T13:15:58;17.05;;;9.38;;
71639;SDS011;60912;48.968;10.124;2023-02-15T13:21:20;14.38;;;9.80;;
71639;SDS011;60912;48.968;10.124;2023-02-15T13:23:48;15.87;;;9.40;;
71639;SDS011;60912;48.968;10.124;2023-02-15T13:26:20;15.23;;;9.32;;
71639;SDS011;60912;48.968;10.124;2023-02-15T13:28:48;14.75;;;9.93;;
71639;SDS011;60912;48.968;10.124;2023-02-15T13:31:19;14.32;;;9.30;;
71639;SDS011;60912;48.968;10.124;2023-02-15T13:34:20;14.38;;;9.07;;
71639;SDS011;60912;48.968;10.124;2023-02-15T13:36:47;17.87;;;9.07;;
71639;SDS011;60912;48.968;10.124;2023-02-15T13:39:23;14.50;;;9.70;;
71639;SDS011;60912;48.968;10.124;2023-02-15T13:42:04;16.40;;;9.05;;
71639;SDS011;60912;48.968;10.124;2023-02-15T13:47:21;14.75;;;10.10;;
71639;SDS011;60912;48.968;10.124;2023-02-15T13:52:41;14.30;;;10.00;;
71639;SDS011;60912;48.968;10.124;2023-02-15T14:01:08;17.30;;;9.48;;
71639;SDS011;60912;48.968;10.124;2023-02-15T14:09:20;14.07;;;10.07;;
71639;SDS011;60912;48.968;10.124;2023-02-15T14:29:01;14.75;;;9.10;;
71639;SDS011;60912;48.968;10.124;2023-02-15T14:31:59;14.60;;;10.10;;
71639;SDS011;60912;48.968;10.124;2023-02-15T14:37:12;15.48;;;9.77;;
71639;SDS011;60912;48.968;10.124;2023-02-15T14:46:07;14.90;;;9.30;;
71639;SDS011;60912;48.968;10.124;2023-02-15T14:49:11;15.88;;;10.00;;
71639;SDS011;60912;48.968;10.124;2023-02-15T14:54:57;13.30;;;9.52;;
71639;SDS011;60912;48.968;10.124;2023-02-15T15:02:40;18.70;;;10.07;;
71639;SDS011;60912;48.968;10.124;2023-02-15T15:07:57;17.73;;;10.95;;
71639;SDS011;60912;48.968;10.124;2023-02-15T15:10:41;14.88;;;10.43;;
71639;SDS011;60912;48.968;10.124;2023-02-15T15:15:56;14.07;;;9.98;;
71639;SDS011;60912;48.968;10.124;2023-02-15T15:18:48;16.23;;;10.60;;
71639;SDS011;60912;48.968;10.124;2023-02-15T15:35:24;15.18;;;10.55;;
71639;SDS011;60912;48.968;10.124;2023-02-15T15:48:38;18.40;;;10.30;;
71639;SDS011;60912;48.968;10.124;2023-02-15T15:51:18;17.13;;;10.90;;
71639;SDS011;60912;48.968;10.124;2023-02-15T15:53:55;17.67;;;11.00;;
71639;SDS011;60912;48.968;10.124;2023-02-15T15:56:24;20.65;;;12.15;;
71639;SDS011;60912;48.968;10.124;2023-02-15T15:58:57;20.33;;;12.50;;
71639;SDS011;60912;48.968;10.124;2023-02-15T16:01:29;16.93;;;10.97;;
71639;SDS011;60912;48.968;10.124;2023-02-15T16:03:56;18.27;;;11.55;;
71639;SDS011;60912;48.968;10.124;2023-02-15T16:06:27;17.83;;;10.80;;
71639;SDS011;60912;48.968;10.124;2023-02-15T16:09:16;17.33;;;12.07;;
71639;SDS011;60912;48.968;10.124;2023-02-15T16:11:47;20.15;;;13.25;;
71639;SDS011;60912;48.968;10.124;2023-02-15T16:14:22;18.90;;;13.80;;
71639;SDS011;60912;48.968;10.124;2023-02-15T16:16:51;23.42;;;13.05;;
71639;SDS011;60912;48.968;10.124;2023-02-15T16:19:20;18.65;;;11.55;;
71639;SDS011;60912;48.968;10.124;2023-02-15T16:21:52;20.15;;;13.00;;
71639;SDS011;60912;48.968;10.124;2023-02-15T16:24:40;20.05;;;12.45;;
71639;SDS011;60912;48.968;10.124;2023-02-15T16:27:29;16.43;;;11.03;;
71639;SDS011;60912;48.968;10.124;2023-02-15T16:29:56;22.00;;;12.25;;
71639;SDS011;60912;48.968;10.124;2023-02-15T16:34:53;18.92;;;12.65;;
71639;SDS011;60912;48.968;10.124;2023-02-15T16:37:27;20.33;;;12.13;;
71639;SDS011;60912;48.968;10.124;2023-02-15T16:39:56;20.40;;;12.23;;
71639;SDS011;60912;48.968;10.124;2023-02-15T16:42:22;18.50;;;11.45;;
71639;SDS011;60912;48.968;10.124;2023-02-15T16:44:50;18.30;;;11.60;;
71639;SDS011;60912;48.968;10.124;2023-02-15T16:47:25;20.40;;;12.40;;
71639;SDS011;60912;48.968;10.124;2023-02-15T16:49:52;21.55;;;12.73;;
71639;SDS011;60912;48.968;10.124;2023-02-15T16:52:23;21.63;;;13.00;;
71639;SDS011;60912;48.968;10.124;2023-02-15T16:54:51;20.27;;;12.30;;
71639;SDS011;60912;48.968;10.124;2023-02-15T16:57:29;21.93;;;12.07;;
71639;SDS011;60912;48.968;10.124;2023-02-15T17:00:06;22.33;;;12.23;;
71639;SDS011;60912;48.968;10.124;2023-02-15T17:02:33;19.58;;;12.25;;
71639;SDS011;60912;48.968;10.124;2023-02-15T17:13:13;23.63;;;12.65;;
71639;SDS011;60912;48.968;10.124;2023-02-15T17:18:40;22.35;;;13.43;;
71639;SDS011;60912;48.968;10.124;2023-02-15T17:21:19;21.02;;;13.00;;
71639;SDS011;60912;48.968;10.124;2023-02-15T17:23:49;20.17;;;13.03;;
71639;SDS011;60912;48.968;10.124;2023-02-15T17:26:20;20.52;;;12.45;;
71639;SDS011;60912;48.968;10.124;2023-02-15T17:28:52;22.20;;;12.85;;
71639;SDS011;60912;48.968;10.124;2023-02-15T17:31:21;23.88;;;15.00;;
71639;SDS011;60912;48.968;10.124;2023-02-15T17:33:48;22.92;;;12.65;;
71639;SDS011;60912;48.968;10.124;2023-02-15T17:36:16;22.83;;;13.40;;
71639;SDS011;60912;48.968;10.124;2023-02-15T17:41:29;21.00;;;12.50;;
71639;SDS011;60912;48.968;10.124;2023-02-15T17:43:57;23.37;;;13.93;;
71639;SDS011;60912;48.968;10.124;2023-02-15T17:46:23;22.02;;;13.57;;
71639;SDS011;60912;48.968;10.124;2023-02-15T17:48:50;21.45;;;13.77;;
71639;SDS011;60912;48.968;10.124;2023-02-15T17:51:19;22.80;;;14.27;;
71639;SDS011;60912;48.968;10.124;2023-02-15T17:53:45;21.77;;;13.63;;
71639;SDS011;60912;48.968;10.124;2023-02-15T17:56:29;24.27;;;13.48;;
71639;SDS011;60912;48.968;10.124;2023-02-15T17:58:55;21.50;;;13.52;;
71639;SDS011;60912;48.968;10.124;2023-02-15T18:01:21;25.53;;;14.27;;
71639;SDS011;60912;48.968;10.124;2023-02-15T18:04:09;24.05;;;14.00;;
71639;SDS011;60912;48.968;10.124;2023-02-15T18:06:56;24.08;;;13.75;;